Timeline UpdatesTrip UpdatesNews PostsPvt Posts♥♥Travel TipsAdmin PostsConv PostsFollowed PostsChat RequestsBlog PostsPNR Posts

Disclaimer
Search
 
 
Sat Nov 1, 2014 17:30:56 ISTHomeTrainsΣChainsAtlasPNRForumGalleryNewsFAQTripsMembersLoginFeedback
No Recent News for this Train
Other Trains in the News **new
Latest...
.
Wed Jul 25, 2012 (05:18PM)
⇐ Return Journey: Train# 57274

57273/Hubli - Tirupati Passenger

Time-Table HAS CHANGED.
Oct 16 (10:49PM)
Change Departure Station:
Change Arrival Station:
Post a Train Travel TipPost a Train Travel Tip **new
Post a Comment/Question/Picture/VideoPost a Comment/Question/Picture/Video
Pantry/Catering
✕ NO Pantry Car
✕ NO Catering
RSA - Rake Sharing
57257/58 TPTY-COA Passenger
Rake/Coach Composition
LOCO-SLR-GS-GS-GS-GS-GS-GS-GS-S2-S1-GS-GS-GS-GS-GS-SLR
Loco
UBL - GTL --> GTL WDM 2B GTL-TPTY --> WAP/WAM
News    PNR    Forum    Time-Table    Availability    Fare Chart    Map    Arr/Dep History    Trips    Gallery    ΣChains    X/O    Timeline    
Travel Time: 12h 30m    49 halts    Distance: 434 km    Avg Speed: 34 km/hr
Type: Passenger
Zone: SCR/South Central
Departs @ 09:15 (Avg 22m late)
Platform# 1
SMTWTFS
Hospet Junction/HPT 
Arrives @ 21:45 (Avg 24m late)
Platform# 5
SMTWTFS
Tirupati Main/TPTY 

49 halts. 60 intermediate Stations between Hospet Junction and Tirupati Main

Show ALL intermediate Stations  Show Old Time-Table

#TrkCodeStation NameX/OArrivesAvgDepartsAvgHaltPFDay#KmSpeedElevZoneAddress
1|==|UBLHubli Junction (5)  -06:00+021-143.151640mSWRHubli - 580020, Karnataka
2|--|SVHESisvinhalli  06:27-06:28-1m--1-120.3121594mSWRState Highway 28, Karnataka
3|--|NGRAnnigeri (2)  06:34+1106:35+121m--1-108.271634mSWRDist. Dharwad, Karnataka
4|--|LKTHulkoti  06:44+1706:45+171m--1-97.629654mSWRNational Highway 63, Karnataka
5|--|GDGGadag Junction (3)X  07:13 07:10+1007:15+122 5m--1-85.342655mSWRGadag GDG jn pnts. UBL/BAY/SUR, Karnataka
6|--|BNPBhanapurX  08:05 08:19+408:10 08:20+105 1m--1-40.483561mSWRNational Highway 63, Karnataka
7|--|KBLKoppal (1)  08:23 08:29+1608:25 08:30+182 1m11-27.974526mSWRKoppal, Karnataka
8|--|GINGinigera  08:38 08:39+2208:40+232 1m--1-16.846511mSWRGinigera, Karnataka
9|--|MRBMunirabad (1)  08:53 08:54+2608:55+272 1m11-6.120470mSWRMunirabad, Karnataka
10%=-|HPTHospet Junction (3)»  09:13+2009:15+222m110.050472mSWRHospet, Karnataka
11%==%TNGLToranagallu (3)  09:54+2309:55+241m--132.238473mSWRToranagallu, Karnataka
12%==%DAJDurojiX  10:00 10:04+2310:05+235 1m--138.027467mSWRBellary, Karnataka
13%==%BAYBallari Junction (4)  11:05+511:10+75m3164.847458mSWRBellary-583101, Karnataka
14%==%HDDHaddinagundu  11:18+1211:19+121m--171.050433mSCRNational Highway 63, Karnataka
15%==%HGIHagari  11:27+1311:28+131m--177.665413mSCRNational Highway 63, Karnataka
16%==%VPVirapur  11:37+1411:38+141m--187.450427mSCRAnantapur, Andhra Pradesh
17%==%TKBNTsakibanda  11:44-11:45-1m--192.457431mSCRRayalaseema Region, Andhra Pradesh
18%==%BNLBevinahalu  11:49+1711:50+171m--196.258428mSCRRayalaseema Region, Andhra Pradesh
19%==%BLLBantanahalX  11:57+2211:58+221m--1102.926445mSCRRayalaseema Region, Andhra Pradesh
20|-=%GTLGuntakal Junction (6)12:25+1812:40+2215m--1114.728453mSCRGuntakal. Tel: 08552-227131/32, Andhra Pradesh
21/==/TIMTimmanacherlaX  12:47+3512:48+361m--1117.977434mSCRGuntakal, Andhra Pradesh
22/==/NKDONakkanadoddi  12:55+4012:56+411m--1126.958391mSCRRayalaseema Region, Andhra Pradesh
23|--|PLUPatakottacheruvu  13:01+3913:02+391m--1131.758381mSCRRayalaseema Region, Andhra Pradesh
24/==/GYGooty Junction (2)X  13:14+4913:15+561m--1143.265370mSCRNH 7 Anantapur District, Andhra Pradesh
25/==/JKOJakkalacheruvuX  13:26+1:0313:27+1:031m--1155.178334mSCRRayalaseema Region, Andhra Pradesh
26/==/RLORayala Cheruvu (2)  13:36+1:0613:37+1:061m--1166.938292mSCRRayalacheruvu, Andhra Pradesh
27/==/VMLVemulapadu  13:46+1:0313:47+1:031m--1172.654269mSCRSH 57, Andhra Pradesh
28/==/JURJutturu  13:54+1:0513:55+1:051m--1178.954260mSCRTadipatri, Andhra Pradesh
29/==/KMQAKomali  14:02+1:0914:03+1:101m--1185.234246mSCRPappuru Rd, Andhra Pradesh
30/==/TUTadipatri (3)14:14+5514:15+551m--1191.468243mSCRAnantapuram Dist, Andhra Pradesh
31/==/CLPEChallavaripalli  14:21+1:0514:22+1:061m--1198.252229mSCRYallanur Rd, Andhra Pradesh
32/==/VRNVanganur  14:29+1:1014:30+1:101m--1204.271222mSCRRayalaseema Region, Andhra Pradesh
33/==/RLLRegadipalli  14:36+1:1314:37+1:131m--1211.318223mSCRKadapa (YSR District), Andhra Pradesh
34/==/KDPKondapuram (2)X  15:04+5615:05+1:031m--1219.461214mSCRKadapa (YSR District), Andhra Pradesh
35/==/MUMMangapatnam  15:14+1:0115:15+1:021m--1228.562218mSCRKadapa (YSR District), Andhra Pradesh
36/==/MOOMuddanuru (3)  15:29+1:0615:30+1:061m--1243.057194mSCRKadapa (YSR District), Andhra Pradesh
37/==/KMHKalamalia  15:39+1:0815:40+1:081m--1251.665178mSCRKadapa (YSR District), Andhra Pradesh
38/==/YAYerraguntla (2)X  15:47+1:0615:48+1:061m--1259.257171mSCRKadapa / Cuddapah (YSR District), Andhra Pradesh
39/==/YGDYerragudipad  15:57+1:1015:58+1:111m--1267.738149mSCRKadapa (YSR District), Andhra Pradesh
40/==/KKMKamalapuram (2)  16:09+1:0916:10+1:091m--1274.770141mSCRKadapa (YSR District), Andhra Pradesh
41/==/GPYGangayapalle  16:16+1:0916:17+1:091m--1281.670137mSCRKadapa (YSR District), Andhra Pradesh
42/==/KPUKrishnapuramX  16:25+1:1016:26+1:101m--1290.912133mSCRKadapa (YSR District), Andhra Pradesh
43/==/HXKadapa (3)X  17:04+3617:05+391m11298.360146mSCRCuddapah, Andhra Pradesh
44/==/KNLPKanamalo Palle  17:16+4917:17+491m--1309.348188mSCRKadapa (YSR District), Andhra Pradesh
45/==/BKPTBhakarapet  17:24+5017:25+501m--1314.949145mSCRKadapa (YSR District), Andhra Pradesh
46/==/VNMOntimitta (2)  17:32+5117:33+521m--1320.672134mSCRKadapa (YSR District), Andhra Pradesh
47/==/MMPLMantapampalle (1)  17:42+5417:43+541m11331.528154mSCRKadapa (YSR District), Andhra Pradesh
48/==/NRENandalurX  17:59+4718:00+511m--1338.936143mSCRRayalaseema Region, Andhra Pradesh
49/==/HAQHastavaram  18:09+5018:10+511m--1344.338143mSCRKadapa (YSR District), Andhra Pradesh
50/==/RJPRazampeta (2)  18:18+5118:19+511m--1349.461144mSCRKadapa (YSR District), Andhra Pradesh
51/==/PMTPullampet  18:28+5518:29+551m--1358.546159mSCRKadapa (YSR District), Andhra Pradesh
52/==/RPLReddipalle  18:34-18:35-1m--1362.463175mSCRDr. Y.S. Rajasekhar Reddy, Andhra Pradesh
53/==/OBVPObulavaripalli (2)  18:42+5718:43+571m--1369.759191mSCRRayalaseema Region, Andhra Pradesh
54/==/ANEAnantarajupet  18:49+5918:50+591m--1375.663197mSCRRayalaseema Region, Andhra Pradesh
55/==/KOUKoduru (2)  18:57+1:0118:58+1:031m--1382.962215mSCRKadapa (YSR District), Andhra Pradesh
56/==/SFSettigunta  19:07+1:0519:08+1:071m--1392.239214mSCRCoastal Andhra Region, Andhra Pradesh
57/==/BLPEBalapalleX  19:19+1:0519:20+1:081m--1399.474246mSCRGangurajupodu, Andhra Pradesh
58/==/MRMMamanduruX  19:28+1:1219:29+1:151m--1409.313177mSCRChittoor, Andhra Pradesh
59/==/RURenigunta Junction (5)XO  20:15 20:35+2920:20 21:30+145 55m--1423.840113mSCRChittoor District, Andhra Pradesh
60/==/TPTYTirupati Main (5)•  21:00 21:45+24-51433.7-150mSCRChittoor Distt, Andhra Pradesh
Scroll to Top
Scroll to Bottom